createdAt,value
2023-03-21T00:00:31.490Z,100983.35
2023-03-21T00:04:22.305Z,100982.25
2023-03-21T00:08:08.159Z,100978.56
2023-03-21T00:13:13.253Z,100985.73
2023-03-21T00:17:04.183Z,100983.77
2023-03-21T00:25:26.418Z,100977.41
2023-03-21T00:28:57.758Z,100976.92
2023-03-21T00:32:31.011Z,100974.15
2023-03-21T00:37:00.057Z,100979.02
2023-03-21T00:41:20.970Z,100970.89
2023-03-21T00:44:58.291Z,100966.48
2023-03-21T00:48:49.418Z,100965.41
2023-03-21T00:56:51.013Z,100967.93
2023-03-21T01:04:43.323Z,100964.99
2023-03-21T01:08:38.145Z,100969.77
2023-03-21T01:14:24.908Z,100964.05
2023-03-21T01:19:02.112Z,100957.00
2023-03-21T01:22:36.560Z,100961.17
2023-03-21T01:26:25.494Z,100962.70
2023-03-21T01:30:20.271Z,100969.33
2023-03-21T01:34:55.837Z,100968.08
2023-03-21T01:39:49.264Z,100966.89
2023-03-21T01:43:38.270Z,100966.65
2023-03-21T01:48:00.409Z,100968.25
2023-03-21T01:51:43.054Z,100963.05
2023-03-21T01:55:51.311Z,100957.10
2023-03-21T01:59:39.084Z,100951.27
2023-03-21T02:03:35.967Z,100954.69
2023-03-21T02:07:32.214Z,100953.10
2023-03-21T02:11:54.663Z,100946.52
2023-03-21T02:16:26.300Z,100949.24
2023-03-21T02:20:33.076Z,100949.61
2023-03-21T02:24:22.130Z,100944.04
2023-03-21T02:28:11.039Z,100943.32
2023-03-21T02:32:25.355Z,100945.84
2023-03-21T02:36:29.705Z,100950.05
2023-03-21T02:40:16.875Z,100949.14
2023-03-21T02:44:27.890Z,100945.98
2023-03-21T02:48:28.052Z,100948.92
2023-03-21T02:56:12.474Z,100949.34
2023-03-21T03:00:16.111Z,100951.14
2023-03-21T03:04:10.120Z,100952.00
2023-03-21T03:08:14.371Z,100956.71
2023-03-21T03:15:03.787Z,100958.42
2023-03-21T03:18:53.964Z,100964.66
2023-03-21T03:22:46.777Z,100954.59
2023-03-21T03:26:43.370Z,100959.65
2023-03-21T03:30:32.317Z,100958.52
2023-03-21T03:34:19.154Z,100963.60
2023-03-21T03:38:46.166Z,100961.83
2023-03-21T03:42:51.108Z,100966.38
2023-03-21T03:47:22.905Z,100966.88
2023-03-21T03:51:08.176Z,100963.27
2023-03-21T03:55:11.157Z,100969.45
2023-03-21T03:58:56.229Z,100972.34
2023-03-21T04:03:02.900Z,100974.27
2023-03-21T04:07:58.262Z,100972.98
2023-03-21T04:12:02.134Z,100974.27
2023-03-21T04:16:06.664Z,100976.10
2023-03-21T04:19:49.277Z,100978.95
2023-03-21T04:27:02.231Z,100981.11
2023-03-21T04:31:00.755Z,100981.07
2023-03-21T04:36:30.553Z,100983.82
2023-03-21T04:40:25.907Z,100991.73
2023-03-21T04:44:13.039Z,100989.34
2023-03-21T04:48:06.228Z,100992.39
2023-03-21T04:52:48.524Z,100993.58
2023-03-21T05:01:21.094Z,100994.85
2023-03-21T05:04:44.689Z,100993.30
2023-03-21T05:12:25.582Z,100999.05
2023-03-21T05:16:13.966Z,100997.95
2023-03-21T05:24:56.058Z,101009.65
2023-03-21T05:28:51.189Z,101014.16
2023-03-21T05:36:40.136Z,101016.48
2023-03-21T05:44:58.035Z,101023.51
2023-03-21T05:54:36.443Z,101027.14
2023-03-21T05:59:01.656Z,101027.44
2023-03-21T06:02:46.350Z,101032.40
2023-03-21T06:07:14.447Z,101029.48
2023-03-21T06:11:17.592Z,101037.23
2023-03-21T06:15:57.329Z,101039.00
2023-03-21T06:20:25.827Z,101035.92
2023-03-21T06:24:29.369Z,101034.68
2023-03-21T06:28:30.119Z,101035.34
2023-03-21T06:32:17.094Z,101033.02
2023-03-21T06:36:21.991Z,101032.86
2023-03-21T06:40:13.662Z,101037.13
2023-03-21T06:44:05.199Z,101037.36
2023-03-21T06:48:25.227Z,101038.05
2023-03-21T06:53:36.462Z,101037.09
2023-03-21T06:56:33.551Z,101036.52
2023-03-21T07:00:26.236Z,101042.36
2023-03-21T07:04:18.244Z,101042.59
2023-03-21T07:08:11.436Z,101044.73
2023-03-21T07:11:53.654Z,101053.08
2023-03-21T07:15:47.003Z,101051.63
2023-03-21T07:23:41.604Z,101050.95
2023-03-21T07:28:10.425Z,101055.84
2023-03-21T07:36:01.281Z,101054.82
2023-03-21T07:43:49.078Z,101061.96
2023-03-21T07:47:49.736Z,101067.48
2023-03-21T07:52:04.977Z,101060.27
2023-03-21T08:26:38.974Z,101081.30
2023-03-21T08:42:57.963Z,101087.84
2023-03-21T08:48:30.754Z,101092.65
2023-03-21T09:03:57.854Z,101095.14
2023-03-21T09:07:32.145Z,101099.78
2023-03-21T09:11:59.407Z,101102.71
2023-03-21T09:16:29.593Z,101104.94
2023-03-21T09:20:25.763Z,101103.98
2023-03-21T09:24:26.037Z,101102.77
2023-03-21T09:28:27.453Z,101099.16
2023-03-21T09:33:00.419Z,101098.98
2023-03-21T09:45:57.210Z,101092.02
2023-03-21T09:49:35.610Z,101087.73
2023-03-21T09:58:15.844Z,101080.80
2023-03-21T10:04:51.982Z,101082.30
2023-03-21T10:11:15.012Z,101072.73
2023-03-21T10:15:39.252Z,101069.92
2023-03-21T10:19:25.641Z,101067.91
2023-03-21T10:23:31.936Z,101066.20
2023-03-21T10:28:03.620Z,101066.69
2023-03-21T10:43:34.615Z,101067.27
2023-03-21T10:48:04.402Z,101063.21
2023-03-21T10:52:50.304Z,101064.17
2023-03-21T10:56:29.779Z,101067.16
2023-03-21T11:00:08.632Z,101059.98
2023-03-21T11:04:04.970Z,101057.56
2023-03-21T11:08:01.056Z,101053.95
2023-03-21T11:11:52.931Z,101052.88
2023-03-21T11:19:58.719Z,101052.38
2023-03-21T11:23:41.491Z,101049.97
2023-03-21T11:27:33.533Z,101052.11
2023-03-21T11:31:22.783Z,101049.91
2023-03-21T11:35:02.401Z,101045.82
2023-03-21T11:39:00.858Z,101045.83
2023-03-21T11:42:37.326Z,101039.46
2023-03-21T11:46:25.850Z,101037.27
2023-03-21T11:50:04.643Z,101033.70
2023-03-21T11:54:11.173Z,101027.73
2023-03-21T11:58:25.241Z,101024.23
2023-03-21T12:02:56.005Z,101017.04
2023-03-21T12:06:45.488Z,101020.58
2023-03-21T12:10:49.809Z,101022.42
2023-03-21T12:14:51.094Z,101017.40
2023-03-21T12:19:04.985Z,101012.95
2023-03-21T12:27:02.383Z,101005.05
2023-03-21T12:36:20.209Z,100996.85
2023-03-21T12:40:28.689Z,100993.80
2023-03-21T12:44:05.136Z,100988.95
2023-03-21T12:47:52.259Z,100990.13
2023-03-21T12:55:57.760Z,100983.10
2023-03-21T12:59:49.180Z,100982.59
2023-03-21T13:03:44.497Z,100979.13
2023-03-21T13:07:22.791Z,100973.05
2023-03-21T13:11:14.938Z,100970.14
2023-03-21T13:15:12.541Z,100966.45
2023-03-21T13:19:18.550Z,100959.43
2023-03-21T13:23:10.354Z,100959.15
2023-03-21T13:26:59.654Z,100951.83
2023-03-21T13:30:53.886Z,100949.23
2023-03-21T13:34:43.051Z,100943.86
2023-03-21T13:38:32.659Z,100942.17
2023-03-21T13:42:03.502Z,100943.59
2023-03-21T13:45:45.665Z,100940.30
2023-03-21T13:49:33.469Z,100936.98
2023-03-21T13:53:22.780Z,100940.42
2023-03-21T13:57:27.370Z,100937.99
2023-03-21T14:01:22.914Z,100936.20
2023-03-21T14:05:12.254Z,100937.64
2023-03-21T14:09:06.812Z,100935.77
2023-03-21T14:12:52.951Z,100934.86
2023-03-21T14:16:45.165Z,100932.73
2023-03-21T14:20:35.894Z,100929.77
2023-03-21T14:24:12.866Z,100921.22
2023-03-21T14:28:04.874Z,100914.95
2023-03-21T14:31:43.276Z,100912.91
2023-03-21T14:35:33.564Z,100902.77
2023-03-21T14:39:26.770Z,100901.78
2023-03-21T14:43:06.503Z,100896.44
2023-03-21T14:47:07.814Z,100892.88
2023-03-21T14:50:57.001Z,100886.98
2023-03-21T14:54:47.863Z,100889.26
2023-03-21T14:58:37.048Z,100895.89
2023-03-21T15:02:26.348Z,100898.37
2023-03-21T15:06:15.689Z,100900.23
2023-03-21T15:09:57.761Z,100897.45
2023-03-21T15:13:54.273Z,100893.23
2023-03-21T15:17:06.064Z,100889.07
2023-03-21T15:20:53.935Z,100890.87
2023-03-21T15:24:51.308Z,100890.51
2023-03-21T15:28:40.447Z,100895.52
2023-03-21T15:32:26.453Z,100897.30
2023-03-21T15:36:11.935Z,100893.31
2023-03-21T15:39:53.352Z,100889.22
2023-03-21T15:43:23.485Z,100885.99
2023-03-21T15:47:20.166Z,100889.33
2023-03-21T15:50:58.872Z,100893.36
2023-03-21T15:54:48.507Z,100889.73
2023-03-21T15:58:38.024Z,100894.60
2023-03-21T16:02:02.169Z,100892.83
2023-03-21T16:05:46.962Z,100887.45
2023-03-21T16:09:28.824Z,100886.61
2023-03-21T16:13:12.347Z,100886.77
2023-03-21T16:16:55.729Z,100881.48
2023-03-21T16:20:44.999Z,100880.71
2023-03-21T16:24:29.753Z,100877.30
2023-03-21T16:28:26.203Z,100878.36
2023-03-21T16:32:15.681Z,100875.32
2023-03-21T16:36:09.333Z,100877.73
2023-03-21T16:39:58.752Z,100882.45
2023-03-21T16:43:37.944Z,100885.80
2023-03-21T16:47:27.392Z,100884.36
2023-03-21T16:51:19.708Z,100883.20
2023-03-21T16:59:19.218Z,100879.70
2023-03-21T17:03:52.157Z,100880.23
2023-03-21T17:12:50.887Z,100879.19
2023-03-21T17:17:20.854Z,100879.55
2023-03-21T17:26:25.143Z,100885.83
2023-03-21T17:30:55.355Z,100886.66
2023-03-21T17:35:25.222Z,100887.20
2023-03-21T17:40:00.364Z,100891.76
2023-03-21T17:44:31.687Z,100889.98
2023-03-21T17:49:01.453Z,100886.36
2023-03-21T17:53:32.732Z,100886.51
2023-03-21T17:58:03.508Z,100891.37
2023-03-21T18:02:33.470Z,100890.96
2023-03-21T18:07:03.576Z,100893.46
2023-03-21T18:11:38.823Z,100893.80
2023-03-21T18:16:08.687Z,100894.79
2023-03-21T18:20:52.165Z,100899.39
2023-03-21T18:25:10.992Z,100902.55
2023-03-21T18:34:15.389Z,100905.25
2023-03-21T18:38:45.279Z,100903.68
2023-03-21T18:43:59.360Z,100905.38
2023-03-21T18:47:51.338Z,100895.65
2023-03-21T18:52:23.095Z,100895.44
2023-03-21T18:57:33.698Z,100897.33
2023-03-21T19:01:25.582Z,100897.25
2023-03-21T19:05:58.911Z,100893.95
2023-03-21T19:10:29.334Z,100894.38
2023-03-21T19:15:02.444Z,100895.58
2023-03-21T19:19:11.196Z,100898.58
2023-03-21T19:22:55.166Z,100899.12
2023-03-21T19:26:25.352Z,100898.66
2023-03-21T19:30:16.224Z,100895.20
2023-03-21T19:33:20.588Z,100890.45
2023-03-21T19:40:44.838Z,100892.91
2023-03-21T19:44:24.237Z,100888.24
2023-03-21T19:47:55.841Z,100884.41
2023-03-21T19:51:34.452Z,100880.39
2023-03-21T19:54:43.088Z,100870.60
2023-03-21T19:58:22.349Z,100872.64
2023-03-21T20:01:56.856Z,100864.60
2023-03-21T20:05:50.715Z,100862.48
2023-03-21T20:09:51.173Z,100865.77
2023-03-21T20:13:12.199Z,100871.94
2023-03-21T20:15:54.968Z,100877.09
2023-03-21T20:19:45.633Z,100874.39
2023-03-21T20:23:35.174Z,100863.66
2023-03-21T20:27:24.434Z,100859.64
2023-03-21T20:31:01.145Z,100859.97
2023-03-21T20:34:55.665Z,100856.77
2023-03-21T20:38:55.312Z,100861.77
2023-03-21T20:42:44.729Z,100854.15
2023-03-21T20:46:35.860Z,100855.19
2023-03-21T20:50:08.123Z,100853.71
2023-03-21T20:54:00.727Z,100848.59
2023-03-21T20:57:30.980Z,100852.02
2023-03-21T21:01:30.976Z,100851.02
2023-03-21T21:05:33.850Z,100856.42
2023-03-21T21:09:24.320Z,100855.33
2023-03-21T21:13:16.805Z,100855.38
2023-03-21T21:17:24.605Z,100851.58
2023-03-21T21:21:17.176Z,100849.73
2023-03-21T21:25:10.669Z,100843.45
2023-03-21T21:28:51.385Z,100844.61
2023-03-21T21:32:30.508Z,100833.49
2023-03-21T21:36:19.609Z,100835.77
2023-03-21T21:40:07.936Z,100834.63
2023-03-21T21:43:45.782Z,100836.27
2023-03-21T21:47:34.777Z,100827.89
2023-03-21T21:51:23.697Z,100830.91
2023-03-21T21:55:12.644Z,100830.23
2023-03-21T21:59:11.290Z,100824.31
2023-03-21T22:03:00.339Z,100825.91
2023-03-21T22:06:49.446Z,100832.33
2023-03-21T22:10:29.338Z,100833.59
2023-03-21T22:14:19.070Z,100824.32
2023-03-21T22:18:08.319Z,100813.93
2023-03-21T22:21:57.361Z,100813.02
2023-03-21T22:25:46.304Z,100807.86
2023-03-21T22:29:35.304Z,100799.85
2023-03-21T22:33:24.197Z,100801.57
2023-03-21T22:37:05.710Z,100805.23
2023-03-21T22:40:54.226Z,100802.16
2023-03-21T22:44:43.146Z,100799.29
2023-03-21T22:48:22.031Z,100797.32
2023-03-21T22:52:10.996Z,100791.27
2023-03-21T22:55:59.855Z,100794.29
2023-03-21T23:00:00.661Z,100793.63
2023-03-21T23:03:54.410Z,100796.71
2023-03-21T23:07:43.372Z,100800.48
2023-03-21T23:11:32.156Z,100795.48
2023-03-21T23:15:02.345Z,100795.77
2023-03-21T23:18:51.860Z,100795.87
2023-03-21T23:22:40.763Z,100793.52
2023-03-21T23:26:29.628Z,100788.48
2023-03-21T23:30:18.557Z,100780.13
2023-03-21T23:34:07.401Z,100779.48
2023-03-21T23:37:56.283Z,100774.86
2023-03-21T23:45:39.320Z,100764.32
2023-03-21T23:50:05.694Z,100759.63
2023-03-21T23:54:35.610Z,100754.11
2023-03-21T23:59:06.418Z,100750.42
